Aeroporto :
LOGIN :

Iscrizione | Disclaimer

   EN    FR    IT 

 










Sommario :    VFR   VFR Marginale   IFR   IFR Intensivo   IFR Molto Intensivo
Visibilità : 
Base nubi : 
>= 8 km
>= 3000ft
5 / 8 km
1000 / 3000 ft
1500m / 5 km
500 / 1000 ft
800 / 1500m
200 / 500 ft
< 800m
< 200 ft
Simboli :   Temporali  Nebbia  Neve Forte  Precipitazioni Forti  Vento > 20 kt
SIGMETs :   Varie  Temporali  Ghiacco  Turbolenza  Onda orograficha  Ceneri Vulcaniche






- Altitudine del aeroporto : 1470 ft
- Codice IATA : KLU


LOWK - Klagenfurt

ULTIMO METAR :
  • 140820Z 05003KT 340V130 9999 FEW007 BKN012 03/01 Q1012 R10L/29//95 TEMPO SCT010 BKN015

METARs OBSOLETI :
  • 140750Z VRB02KT 9999 FEW007 BKN012 03/01 Q1012 R10L/29//95 NOSIG
  • 140720Z 09003KT 050V130 9999 FEW005 BKN011 03/02 Q1012 R10L/29//95 NOSIG
  • 140650Z 08003KT 050V110 9999 FEW005 BKN011 03/01 Q1012 R10L/29//95 NOSIG
  • 140620Z 13003KT 100V160 9999 FEW005 BKN011 03/02 Q1011 R10L/29//95 NOSIG
  • 140550Z VRB01KT 9999 FEW005 BKN011 03/02 Q1011 R10L/29//95 NOSIG

TAF TAF LOWK
Valido dal 14 a 06 ore il 15 a 06 ore UTC


140515Z 1406/1506 VRB02KT 9999 SCT005 BKN010 TX05/1505Z TN02/1406Z
BECMG 1407/1410 09005KT SCT010 BKN020
TEMPO 1418/1506 -RA SCT010 BKN012
PROB30
TEMPO 1502/1506 3000 BR BKN005



MetMap, La meteo Aeronautica in un colpo d'occhio ! - Copyright ORBIFLY Dicembre 2007 - Disclaimer

ORBIFLY MET'MAP TEAM :

Programmazione e sviluppo : Alexandra Zaïnal
Concezione e sviluppo : Baudouin d'Aumeries
Co-Programmazione e sviluppo : Marc-Olivier Méhu
Supporto tecnico e logistico : Manuel Goepfert
Aiuto per la traduzione : Arnaldo La Scala

Contatto : metmap@orbifly.com




FONTI E CREDITI :

   NOAA